sensor_id;sensor_type;location;lat;lon;timestamp;pressure;altitude;pressure_sealevel;temperature;humidity
45040;BME280;30778;53.574;7.770;2023-07-29T00:01:44;100660.28;;;16.59;56.36
45040;BME280;30778;53.574;7.770;2023-07-29T00:04:11;100660.06;;;16.62;56.13
45040;BME280;30778;53.574;7.770;2023-07-29T00:06:37;100660.78;;;16.64;56.28
45040;BME280;30778;53.574;7.770;2023-07-29T00:09:03;100652.59;;;16.56;56.29
45040;BME280;30778;53.574;7.770;2023-07-29T00:11:28;100647.19;;;16.57;56.53
45040;BME280;30778;53.574;7.770;2023-07-29T00:13:54;100642.22;;;16.53;56.17
45040;BME280;30778;53.574;7.770;2023-07-29T00:16:19;100643.91;;;16.41;56.18
45040;BME280;30778;53.574;7.770;2023-07-29T00:18:48;100639.69;;;16.38;56.46
45040;BME280;30778;53.574;7.770;2023-07-29T00:21:13;100642.97;;;16.42;56.67
45040;BME280;30778;53.574;7.770;2023-07-29T00:23:39;100641.19;;;16.42;56.47
45040;BME280;30778;53.574;7.770;2023-07-29T00:26:05;100637.88;;;16.26;56.69
45040;BME280;30778;53.574;7.770;2023-07-29T00:28:30;100641.69;;;16.22;56.70
45040;BME280;30778;53.574;7.770;2023-07-29T00:30:56;100625.75;;;16.11;56.99
45040;BME280;30778;53.574;7.770;2023-07-29T00:33:21;100629.56;;;16.07;57.29
45040;BME280;30778;53.574;7.770;2023-07-29T00:35:47;100629.63;;;16.05;57.43
45040;BME280;30778;53.574;7.770;2023-07-29T00:38:12;100630.69;;;16.03;57.38
45040;BME280;30778;53.574;7.770;2023-07-29T00:40:38;100635.13;;;16.02;57.60
45040;BME280;30778;53.574;7.770;2023-07-29T00:43:03;100629.41;;;15.95;57.38
45040;BME280;30778;53.574;7.770;2023-07-29T00:45:33;100629.56;;;15.92;57.73
45040;BME280;30778;53.574;7.770;2023-07-29T00:48:00;100626.41;;;15.87;57.69
45040;BME280;30778;53.574;7.770;2023-07-29T00:50:26;100619.44;;;15.86;57.63
45040;BME280;30778;53.574;7.770;2023-07-29T00:52:54;100622.59;;;15.78;57.72
45040;BME280;30778;53.574;7.770;2023-07-29T00:55:22;100617.28;;;15.66;58.14
45040;BME280;30778;53.574;7.770;2023-07-29T00:57:48;100615.06;;;15.59;58.31
45040;BME280;30778;53.574;7.770;2023-07-29T01:00:19;100616.75;;;15.61;57.95
45040;BME280;30778;53.574;7.770;2023-07-29T01:02:44;100603.03;;;15.55;58.35
45040;BME280;30778;53.574;7.770;2023-07-29T01:05:13;100610.50;;;15.49;58.26
45040;BME280;30778;53.574;7.770;2023-07-29T01:07:51;100598.75;;;15.40;58.31
45040;BME280;30778;53.574;7.770;2023-07-29T01:13:11;100594.44;;;15.39;58.49
45040;BME280;30778;53.574;7.770;2023-07-29T01:15:48;100592.97;;;15.35;58.59
45040;BME280;30778;53.574;7.770;2023-07-29T01:18:20;100592.31;;;15.31;58.82
45040;BME280;30778;53.574;7.770;2023-07-29T01:20:47;100579.22;;;15.30;58.80
45040;BME280;30778;53.574;7.770;2023-07-29T01:23:13;100580.38;;;15.26;58.75
45040;BME280;30778;53.574;7.770;2023-07-29T01:25:40;100576.06;;;15.25;58.93
45040;BME280;30778;53.574;7.770;2023-07-29T01:28:06;100570.88;;;15.23;58.98
45040;BME280;30778;53.574;7.770;2023-07-29T01:30:38;100570.31;;;15.18;58.53
45040;BME280;30778;53.574;7.770;2023-07-29T01:35:47;100575.13;;;15.11;58.74
45040;BME280;30778;53.574;7.770;2023-07-29T01:38:22;100567.97;;;15.13;58.71
45040;BME280;30778;53.574;7.770;2023-07-29T01:40:50;100572.41;;;15.13;58.88
45040;BME280;30778;53.574;7.770;2023-07-29T01:43:16;100572.19;;;15.16;59.14
45040;BME280;30778;53.574;7.770;2023-07-29T01:45:44;100565.56;;;15.10;58.93
45040;BME280;30778;53.574;7.770;2023-07-29T01:48:10;100566.47;;;15.09;59.06
45040;BME280;30778;53.574;7.770;2023-07-29T01:50:35;100564.06;;;15.06;59.27
45040;BME280;30778;53.574;7.770;2023-07-29T01:53:01;100558.78;;;15.06;59.21
45040;BME280;30778;53.574;7.770;2023-07-29T01:55:26;100552.78;;;15.04;59.11
45040;BME280;30778;53.574;7.770;2023-07-29T01:57:53;100556.34;;;15.03;59.24
45040;BME280;30778;53.574;7.770;2023-07-29T02:00:19;100563.31;;;15.04;59.24
45040;BME280;30778;53.574;7.770;2023-07-29T02:02:45;100563.09;;;15.07;59.22
45040;BME280;30778;53.574;7.770;2023-07-29T02:05:10;100564.84;;;15.21;59.22
45040;BME280;30778;53.574;7.770;2023-07-29T02:07:36;100561.09;;;15.25;59.12
45040;BME280;30778;53.574;7.770;2023-07-29T02:10:02;100565.22;;;15.29;59.57
45040;BME280;30778;53.574;7.770;2023-07-29T02:12:27;100563.69;;;15.40;59.43
45040;BME280;30778;53.574;7.770;2023-07-29T02:14:53;100563.09;;;15.49;59.23
45040;BME280;30778;53.574;7.770;2023-07-29T02:17:18;100553.59;;;15.46;59.06
45040;BME280;30778;53.574;7.770;2023-07-29T02:19:44;100545.13;;;15.28;58.94
45040;BME280;30778;53.574;7.770;2023-07-29T02:22:13;100553.47;;;15.35;59.03
45040;BME280;30778;53.574;7.770;2023-07-29T02:24:38;100543.84;;;15.34;59.36
45040;BME280;30778;53.574;7.770;2023-07-29T02:27:04;100547.44;;;15.33;59.37
45040;BME280;30778;53.574;7.770;2023-07-29T02:29:29;100544.06;;;15.31;59.35
45040;BME280;30778;53.574;7.770;2023-07-29T02:31:55;100543.03;;;15.33;59.39
45040;BME280;30778;53.574;7.770;2023-07-29T02:34:21;100544.38;;;15.39;59.42
45040;BME280;30778;53.574;7.770;2023-07-29T02:36:47;100544.22;;;15.42;59.53
45040;BME280;30778;53.574;7.770;2023-07-29T02:39:12;100544.22;;;15.55;59.43
45040;BME280;30778;53.574;7.770;2023-07-29T02:41:38;100546.59;;;15.59;59.31
45040;BME280;30778;53.574;7.770;2023-07-29T02:44:05;100545.84;;;15.57;59.43
45040;BME280;30778;53.574;7.770;2023-07-29T02:46:30;100540.78;;;15.67;59.44
45040;BME280;30778;53.574;7.770;2023-07-29T02:48:56;100535.00;;;15.62;58.98
45040;BME280;30778;53.574;7.770;2023-07-29T02:51:22;100537.81;;;15.59;58.83
45040;BME280;30778;53.574;7.770;2023-07-29T02:53:47;100536.63;;;15.50;58.85
45040;BME280;30778;53.574;7.770;2023-07-29T02:56:13;100537.25;;;15.41;59.34
45040;BME280;30778;53.574;7.770;2023-07-29T02:58:38;100539.69;;;15.44;59.27
45040;BME280;30778;53.574;7.770;2023-07-29T03:01:06;100538.94;;;15.42;59.31
45040;BME280;30778;53.574;7.770;2023-07-29T03:03:32;100530.81;;;15.45;59.20
45040;BME280;30778;53.574;7.770;2023-07-29T03:06:02;100538.19;;;15.40;59.49
45040;BME280;30778;53.574;7.770;2023-07-29T03:08:28;100539.69;;;15.44;59.60
45040;BME280;30778;53.574;7.770;2023-07-29T03:10:54;100544.75;;;15.47;59.58
45040;BME280;30778;53.574;7.770;2023-07-29T03:13:20;100539.81;;;15.55;59.62
45040;BME280;30778;53.574;7.770;2023-07-29T03:15:45;100545.84;;;15.57;59.28
45040;BME280;30778;53.574;7.770;2023-07-29T03:18:11;100539.25;;;15.50;59.22
45040;BME280;30778;53.574;7.770;2023-07-29T03:20:37;100550.53;;;15.52;59.42
45040;BME280;30778;53.574;7.770;2023-07-29T03:23:02;100549.78;;;15.50;59.57
45040;BME280;30778;53.574;7.770;2023-07-29T03:25:28;100550.66;;;15.51;59.62
45040;BME280;30778;53.574;7.770;2023-07-29T03:27:54;100550.66;;;15.51;59.41
45040;BME280;30778;53.574;7.770;2023-07-29T03:30:21;100551.81;;;15.47;59.40
45040;BME280;30778;53.574;7.770;2023-07-29T03:32:48;100546.44;;;15.48;59.43
45040;BME280;30778;53.574;7.770;2023-07-29T03:35:14;100549.25;;;15.45;58.94
45040;BME280;30778;53.574;7.770;2023-07-29T03:37:40;100554.22;;;15.50;59.14
45040;BME280;30778;53.574;7.770;2023-07-29T03:40:06;100551.72;;;15.48;59.10
45040;BME280;30778;53.574;7.770;2023-07-29T03:42:33;100549.16;;;15.47;59.20
45040;BME280;30778;53.574;7.770;2023-07-29T03:44:58;100545.50;;;15.49;59.12
45040;BME280;30778;53.574;7.770;2023-07-29T03:47:23;100550.22;;;15.44;59.36
45040;BME280;30778;53.574;7.770;2023-07-29T03:49:50;100539.03;;;15.41;59.14
45040;BME280;30778;53.574;7.770;2023-07-29T03:52:19;100541.56;;;15.42;59.09
45040;BME280;30778;53.574;7.770;2023-07-29T03:54:44;100540.84;;;15.40;58.96
45040;BME280;30778;53.574;7.770;2023-07-29T03:57:10;100541.66;;;15.41;58.82
45040;BME280;30778;53.574;7.770;2023-07-29T03:59:38;100533.31;;;15.34;58.97
45040;BME280;30778;53.574;7.770;2023-07-29T04:02:04;100534.16;;;15.34;58.99
45040;BME280;30778;53.574;7.770;2023-07-29T04:04:29;100534.59;;;15.41;58.78
45040;BME280;30778;53.574;7.770;2023-07-29T04:06:55;100531.97;;;15.41;59.08
45040;BME280;30778;53.574;7.770;2023-07-29T04:09:21;100522.41;;;15.40;59.21
45040;BME280;30778;53.574;7.770;2023-07-29T04:11:47;100531.22;;;15.39;59.12
45040;BME280;30778;53.574;7.770;2023-07-29T04:14:12;100524.06;;;15.41;59.17
45040;BME280;30778;53.574;7.770;2023-07-29T04:16:38;100518.63;;;15.44;59.16
45040;BME280;30778;53.574;7.770;2023-07-29T04:19:04;100519.16;;;15.49;58.87
45040;BME280;30778;53.574;7.770;2023-07-29T04:21:29;100512.94;;;15.50;59.05
45040;BME280;30778;53.574;7.770;2023-07-29T04:23:55;100506.31;;;15.57;58.90
45040;BME280;30778;53.574;7.770;2023-07-29T04:26:22;100505.69;;;15.67;58.86
45040;BME280;30778;53.574;7.770;2023-07-29T04:28:47;100500.31;;;15.68;58.71
45040;BME280;30778;53.574;7.770;2023-07-29T04:31:13;100499.78;;;15.63;58.73
45040;BME280;30778;53.574;7.770;2023-07-29T04:33:38;100503.91;;;15.67;58.48
45040;BME280;30778;53.574;7.770;2023-07-29T04:36:04;100498.41;;;15.70;58.30
45040;BME280;30778;53.574;7.770;2023-07-29T04:38:32;100508.44;;;15.78;58.60
45040;BME280;30778;53.574;7.770;2023-07-29T04:40:58;100510.84;;;15.68;58.38
45040;BME280;30778;53.574;7.770;2023-07-29T04:43:30;100509.50;;;15.88;58.11
45040;BME280;30778;53.574;7.770;2023-07-29T04:45:56;100503.84;;;16.07;57.89
45040;BME280;30778;53.574;7.770;2023-07-29T04:48:22;100503.13;;;16.18;57.72
45040;BME280;30778;53.574;7.770;2023-07-29T04:50:47;100505.44;;;16.23;57.40
45040;BME280;30778;53.574;7.770;2023-07-29T04:53:13;100492.75;;;16.28;57.21
45040;BME280;30778;53.574;7.770;2023-07-29T04:55:41;100500.34;;;16.32;56.94
45040;BME280;30778;53.574;7.770;2023-07-29T04:58:07;100494.31;;;16.30;56.36
45040;BME280;30778;53.574;7.770;2023-07-29T05:00:33;100502.22;;;16.43;57.26
45040;BME280;30778;53.574;7.770;2023-07-29T05:02:59;100506.63;;;16.55;56.78
45040;BME280;30778;53.574;7.770;2023-07-29T05:05:24;100500.56;;;16.66;56.74
45040;BME280;30778;53.574;7.770;2023-07-29T05:07:50;100496.56;;;16.73;55.88
45040;BME280;30778;53.574;7.770;2023-07-29T05:10:15;100488.00;;;16.82;55.82
45040;BME280;30778;53.574;7.770;2023-07-29T05:12:41;100494.91;;;16.96;56.03
45040;BME280;30778;53.574;7.770;2023-07-29T05:15:07;100484.16;;;17.35;55.01
45040;BME280;30778;53.574;7.770;2023-07-29T05:17:32;100490.03;;;17.74;53.58
45040;BME280;30778;53.574;7.770;2023-07-29T05:19:58;100491.47;;;17.67;53.68
45040;BME280;30778;53.574;7.770;2023-07-29T05:22:24;100488.31;;;17.50;53.37
45040;BME280;30778;53.574;7.770;2023-07-29T05:24:50;100490.53;;;17.68;53.41
45040;BME280;30778;53.574;7.770;2023-07-29T05:27:15;100482.16;;;18.08;51.83
45040;BME280;30778;53.574;7.770;2023-07-29T05:29:41;100488.59;;;18.94;51.31
45040;BME280;30778;53.574;7.770;2023-07-29T05:32:07;100485.72;;;19.71;49.63
45040;BME280;30778;53.574;7.770;2023-07-29T05:34:32;100481.91;;;20.46;47.40
45040;BME280;30778;53.574;7.770;2023-07-29T05:36:58;100492.19;;;20.09;47.07
45040;BME280;30778;53.574;7.770;2023-07-29T05:39:23;100500.25;;;19.35;47.47
45040;BME280;30778;53.574;7.770;2023-07-29T05:41:49;100501.16;;;18.46;50.24
45040;BME280;30778;53.574;7.770;2023-07-29T05:44:15;100504.94;;;17.63;52.14
45040;BME280;30778;53.574;7.770;2023-07-29T05:46:40;100506.47;;;17.55;53.40
45040;BME280;30778;53.574;7.770;2023-07-29T05:49:06;100515.75;;;17.60;53.13
45040;BME280;30778;53.574;7.770;2023-07-29T05:51:32;100526.06;;;17.63;52.93
45040;BME280;30778;53.574;7.770;2023-07-29T05:53:57;100518.41;;;17.72;52.70
45040;BME280;30778;53.574;7.770;2023-07-29T05:56:22;100511.66;;;17.68;52.34
45040;BME280;30778;53.574;7.770;2023-07-29T05:58:50;100516.94;;;17.56;53.01
45040;BME280;30778;53.574;7.770;2023-07-29T06:01:16;100524.06;;;17.78;52.65
45040;BME280;30778;53.574;7.770;2023-07-29T06:03:42;100513.22;;;17.70;52.27
45040;BME280;30778;53.574;7.770;2023-07-29T06:06:08;100515.16;;;17.44;52.35
45040;BME280;30778;53.574;7.770;2023-07-29T06:08:36;100518.69;;;17.20;53.47
45040;BME280;30778;53.574;7.770;2023-07-29T06:11:01;100513.84;;;17.14;53.54
45040;BME280;30778;53.574;7.770;2023-07-29T06:13:27;100522.94;;;17.10;54.27
45040;BME280;30778;53.574;7.770;2023-07-29T06:15:53;100515.06;;;17.21;53.77
45040;BME280;30778;53.574;7.770;2023-07-29T06:18:19;100515.75;;;16.88;53.81
45040;BME280;30778;53.574;7.770;2023-07-29T06:20:44;100517.03;;;16.82;54.70
45040;BME280;30778;53.574;7.770;2023-07-29T06:23:10;100503.97;;;17.05;54.04
45040;BME280;30778;53.574;7.770;2023-07-29T06:25:38;100508.97;;;17.21;53.65
45040;BME280;30778;53.574;7.770;2023-07-29T06:28:03;100513.19;;;16.50;55.26
45040;BME280;30778;53.574;7.770;2023-07-29T06:30:30;100508.22;;;16.95;53.91
45040;BME280;30778;53.574;7.770;2023-07-29T06:32:55;100513.28;;;17.22;53.39
45040;BME280;30778;53.574;7.770;2023-07-29T06:35:21;100512.28;;;17.36;53.43
45040;BME280;30778;53.574;7.770;2023-07-29T06:37:46;100513.25;;;17.46;53.00
45040;BME280;30778;53.574;7.770;2023-07-29T06:40:12;100511.81;;;17.18;53.33
45040;BME280;30778;53.574;7.770;2023-07-29T06:42:37;100520.09;;;17.73;52.58
45040;BME280;30778;53.574;7.770;2023-07-29T06:45:04;100513.53;;;18.01;51.95
45040;BME280;30778;53.574;7.770;2023-07-29T06:47:33;100513.16;;;17.83;50.86
45040;BME280;30778;53.574;7.770;2023-07-29T06:49:58;100508.75;;;17.59;51.48
45040;BME280;30778;53.574;7.770;2023-07-29T06:52:23;100509.03;;;17.68;51.50
45040;BME280;30778;53.574;7.770;2023-07-29T06:54:49;100511.84;;;18.00;51.09
45040;BME280;30778;53.574;7.770;2023-07-29T06:57:14;100509.50;;;17.73;51.18
45040;BME280;30778;53.574;7.770;2023-07-29T06:59:40;100512.22;;;18.18;51.13
45040;BME280;30778;53.574;7.770;2023-07-29T07:02:06;100508.97;;;18.59;50.50
45040;BME280;30778;53.574;7.770;2023-07-29T07:04:32;100519.19;;;18.75;49.05
45040;BME280;30778;53.574;7.770;2023-07-29T07:06:57;100519.41;;;18.04;50.21
45040;BME280;30778;53.574;7.770;2023-07-29T07:09:23;100514.34;;;17.79;50.42
45040;BME280;30778;53.574;7.770;2023-07-29T07:11:48;100525.53;;;17.94;50.83
45040;BME280;30778;53.574;7.770;2023-07-29T07:14:14;100522.75;;;17.84;51.61
45040;BME280;30778;53.574;7.770;2023-07-29T07:16:40;100517.97;;;18.00;51.39
45040;BME280;30778;53.574;7.770;2023-07-29T07:19:05;100522.06;;;18.83;49.61
45040;BME280;30778;53.574;7.770;2023-07-29T07:21:31;100523.28;;;18.91;48.46
45040;BME280;30778;53.574;7.770;2023-07-29T07:23:58;100521.84;;;18.64;48.35
45040;BME280;30778;53.574;7.770;2023-07-29T07:26:23;100519.69;;;18.46;49.22
45040;BME280;30778;53.574;7.770;2023-07-29T07:28:49;100514.94;;;18.95;47.56
45040;BME280;30778;53.574;7.770;2023-07-29T07:31:14;100515.66;;;18.97;47.36
45040;BME280;30778;53.574;7.770;2023-07-29T07:33:41;100521.66;;;19.85;46.53
45040;BME280;30778;53.574;7.770;2023-07-29T07:36:07;100516.44;;;20.25;44.09
45040;BME280;30778;53.574;7.770;2023-07-29T07:38:32;100523.53;;;21.25;44.50
45040;BME280;30778;53.574;7.770;2023-07-29T07:40:58;100524.09;;;21.39;42.59
45040;BME280;30778;53.574;7.770;2023-07-29T07:43:24;100529.94;;;20.43;43.89
45040;BME280;30778;53.574;7.770;2023-07-29T07:45:49;100521.34;;;18.93;47.20
45040;BME280;30778;53.574;7.770;2023-07-29T07:48:15;100521.72;;;18.88;47.14
45040;BME280;30778;53.574;7.770;2023-07-29T07:50:42;100517.25;;;18.77;48.08
45040;BME280;30778;53.574;7.770;2023-07-29T07:53:08;100514.22;;;18.82;48.39
45040;BME280;30778;53.574;7.770;2023-07-29T07:55:34;100520.50;;;18.69;48.00
45040;BME280;30778;53.574;7.770;2023-07-29T07:57:59;100516.97;;;19.03;47.39
45040;BME280;30778;53.574;7.770;2023-07-29T08:00:25;100515.16;;;19.36;46.34
45040;BME280;30778;53.574;7.770;2023-07-29T08:02:50;100516.38;;;19.64;47.07
45040;BME280;30778;53.574;7.770;2023-07-29T08:05:16;100525.28;;;19.63;47.06
45040;BME280;30778;53.574;7.770;2023-07-29T08:07:42;100523.47;;;19.10;48.66
45040;BME280;30778;53.574;7.770;2023-07-29T08:10:10;100524.03;;;19.46;47.39
45040;BME280;30778;53.574;7.770;2023-07-29T08:12:36;100516.72;;;19.70;45.04
45040;BME280;30778;53.574;7.770;2023-07-29T08:15:01;100509.84;;;19.36;47.16
45040;BME280;30778;53.574;7.770;2023-07-29T08:17:28;100507.50;;;19.75;45.88
45040;BME280;30778;53.574;7.770;2023-07-29T08:19:53;100499.00;;;20.73;44.38
45040;BME280;30778;53.574;7.770;2023-07-29T08:22:19;100497.88;;;20.76;43.35
45040;BME280;30778;53.574;7.770;2023-07-29T08:24:46;100493.94;;;21.96;40.85
45040;BME280;30778;53.574;7.770;2023-07-29T08:27:11;100505.06;;;21.43;42.29
45040;BME280;30778;53.574;7.770;2023-07-29T08:29:36;100503.13;;;20.46;43.09
45040;BME280;30778;53.574;7.770;2023-07-29T08:32:02;100504.31;;;20.83;42.59
45040;BME280;30778;53.574;7.770;2023-07-29T08:34:28;100501.81;;;20.10;44.91
45040;BME280;30778;53.574;7.770;2023-07-29T08:36:54;100500.13;;;20.80;43.01
45040;BME280;30778;53.574;7.770;2023-07-29T08:39:19;100498.69;;;22.58;39.43
45040;BME280;30778;53.574;7.770;2023-07-29T08:41:57;100500.97;;;23.78;37.43
45040;BME280;30778;53.574;7.770;2023-07-29T08:44:30;100498.63;;;24.36;36.11
45040;BME280;30778;53.574;7.770;2023-07-29T08:47:00;100500.47;;;24.86;34.67
45040;BME280;30778;53.574;7.770;2023-07-29T08:49:26;100507.53;;;25.03;34.03
45040;BME280;30778;53.574;7.770;2023-07-29T08:51:53;100516.84;;;24.40;35.14
45040;BME280;30778;53.574;7.770;2023-07-29T08:54:19;100522.44;;;22.24;39.31
45040;BME280;30778;53.574;7.770;2023-07-29T08:56:45;100517.78;;;21.79;40.72
45040;BME280;30778;53.574;7.770;2023-07-29T08:59:11;100523.41;;;20.98;42.79
45040;BME280;30778;53.574;7.770;2023-07-29T09:01:41;100525.91;;;20.89;43.48
45040;BME280;30778;53.574;7.770;2023-07-29T09:04:07;100528.34;;;20.10;44.74
45040;BME280;30778;53.574;7.770;2023-07-29T09:06:33;100518.06;;;21.75;41.24
45040;BME280;30778;53.574;7.770;2023-07-29T09:09:01;100524.81;;;23.18;38.23
45040;BME280;30778;53.574;7.770;2023-07-29T09:11:27;100510.78;;;23.96;35.82
45040;BME280;30778;53.574;7.770;2023-07-29T09:13:53;100520.00;;;24.01;36.94
45040;BME280;30778;53.574;7.770;2023-07-29T09:16:20;100513.41;;;24.56;36.10
45040;BME280;30778;53.574;7.770;2023-07-29T09:18:48;100518.13;;;23.50;37.09
45040;BME280;30778;53.574;7.770;2023-07-29T09:21:17;100517.97;;;24.30;36.50
45040;BME280;30778;53.574;7.770;2023-07-29T09:23:44;100522.13;;;23.28;37.01
45040;BME280;30778;53.574;7.770;2023-07-29T09:26:10;100516.47;;;23.31;38.11
45040;BME280;30778;53.574;7.770;2023-07-29T09:28:37;100520.91;;;24.18;35.50
45040;BME280;30778;53.574;7.770;2023-07-29T09:31:04;100523.75;;;22.75;36.87
45040;BME280;30778;53.574;7.770;2023-07-29T09:33:33;100518.44;;;22.93;36.16
45040;BME280;30778;53.574;7.770;2023-07-29T09:36:00;100513.94;;;22.93;36.11
45040;BME280;30778;53.574;7.770;2023-07-29T09:38:27;100509.75;;;23.45;35.89
45040;BME280;30778;53.574;7.770;2023-07-29T09:40:55;100515.81;;;22.55;37.22
45040;BME280;30778;53.574;7.770;2023-07-29T09:43:25;100504.00;;;22.03;38.76
45040;BME280;30778;53.574;7.770;2023-07-29T09:45:52;100504.69;;;22.42;37.22
45040;BME280;30778;53.574;7.770;2023-07-29T09:48:22;100507.75;;;21.04;39.77
45040;BME280;30778;53.574;7.770;2023-07-29T09:50:48;100503.31;;;21.91;39.54
45040;BME280;30778;53.574;7.770;2023-07-29T09:53:14;100510.78;;;21.77;40.21
45040;BME280;30778;53.574;7.770;2023-07-29T09:55:40;100505.78;;;21.55;39.78
45040;BME280;30778;53.574;7.770;2023-07-29T09:58:11;100508.09;;;21.87;39.55
45040;BME280;30778;53.574;7.770;2023-07-29T10:00:37;100499.06;;;21.31;41.03
45040;BME280;30778;53.574;7.770;2023-07-29T10:03:04;100512.63;;;21.28;40.08
45040;BME280;30778;53.574;7.770;2023-07-29T10:05:32;100509.56;;;21.13;39.82
45040;BME280;30778;53.574;7.770;2023-07-29T10:08:00;100510.28;;;21.15;39.73
45040;BME280;30778;53.574;7.770;2023-07-29T10:10:27;100503.81;;;20.99;40.05
45040;BME280;30778;53.574;7.770;2023-07-29T10:12:54;100510.06;;;21.75;39.10
45040;BME280;30778;53.574;7.770;2023-07-29T10:15:20;100503.03;;;22.87;37.27
45040;BME280;30778;53.574;7.770;2023-07-29T10:17:46;100506.09;;;22.09;38.08
45040;BME280;30778;53.574;7.770;2023-07-29T10:20:11;100499.91;;;21.61;39.43
45040;BME280;30778;53.574;7.770;2023-07-29T10:22:39;100504.81;;;21.07;41.25
45040;BME280;30778;53.574;7.770;2023-07-29T10:25:08;100500.13;;;21.77;38.85
45040;BME280;30778;53.574;7.770;2023-07-29T10:27:41;100497.94;;;21.44;38.90
45040;BME280;30778;53.574;7.770;2023-07-29T10:30:10;100501.19;;;22.69;38.11
45040;BME280;30778;53.574;7.770;2023-07-29T10:32:36;100488.88;;;23.04;36.79
45040;BME280;30778;53.574;7.770;2023-07-29T10:35:03;100489.34;;;23.35;36.94
45040;BME280;30778;53.574;7.770;2023-07-29T10:37:29;100500.22;;;23.24;37.43
45040;BME280;30778;53.574;7.770;2023-07-29T10:39:55;100488.72;;;22.14;39.26
45040;BME280;30778;53.574;7.770;2023-07-29T10:42:21;100494.66;;;23.53;37.42
45040;BME280;30778;53.574;7.770;2023-07-29T10:44:51;100492.69;;;24.50;34.17
45040;BME280;30778;53.574;7.770;2023-07-29T10:47:19;100486.81;;;25.71;33.57
45040;BME280;30778;53.574;7.770;2023-07-29T10:49:47;100486.63;;;24.91;33.29
45040;BME280;30778;53.574;7.770;2023-07-29T10:52:17;100488.06;;;24.60;33.94
45040;BME280;30778;53.574;7.770;2023-07-29T10:54:53;100495.50;;;22.82;36.59
45040;BME280;30778;53.574;7.770;2023-07-29T10:57:31;100491.19;;;22.26;37.84
45040;BME280;30778;53.574;7.770;2023-07-29T10:59:58;100489.41;;;22.72;37.80
45040;BME280;30778;53.574;7.770;2023-07-29T11:02:36;100489.63;;;21.86;38.71
45040;BME280;30778;53.574;7.770;2023-07-29T11:05:07;100485.44;;;22.76;38.06
45040;BME280;30778;53.574;7.770;2023-07-29T11:07:53;100488.47;;;23.97;37.08
45040;BME280;30778;53.574;7.770;2023-07-29T11:10:19;100487.19;;;24.09;35.34
45040;BME280;30778;53.574;7.770;2023-07-29T11:12:52;100488.13;;;22.48;38.21
45040;BME280;30778;53.574;7.770;2023-07-29T11:15:22;100489.72;;;23.40;37.21
45040;BME280;30778;53.574;7.770;2023-07-29T11:17:58;100489.44;;;23.08;36.56
45040;BME280;30778;53.574;7.770;2023-07-29T11:20:26;100477.63;;;24.41;35.34
45040;BME280;30778;53.574;7.770;2023-07-29T11:22:56;100473.91;;;24.76;34.66
45040;BME280;30778;53.574;7.770;2023-07-29T11:25:23;100484.38;;;24.19;35.21
45040;BME280;30778;53.574;7.770;2023-07-29T11:27:51;100483.81;;;23.81;35.87
45040;BME280;30778;53.574;7.770;2023-07-29T11:30:17;100481.81;;;22.77;36.90
45040;BME280;30778;53.574;7.770;2023-07-29T11:32:45;100493.84;;;22.99;37.60
45040;BME280;30778;53.574;7.770;2023-07-29T11:35:16;100494.13;;;22.78;38.10
45040;BME280;30778;53.574;7.770;2023-07-29T11:37:45;100491.06;;;22.17;39.30
45040;BME280;30778;53.574;7.770;2023-07-29T11:40:16;100493.75;;;23.09;39.13
45040;BME280;30778;53.574;7.770;2023-07-29T11:42:42;100488.97;;;22.94;37.94
45040;BME280;30778;53.574;7.770;2023-07-29T11:45:09;100492.25;;;22.33;38.47
45040;BME280;30778;53.574;7.770;2023-07-29T11:47:35;100491.44;;;21.85;38.40
45040;BME280;30778;53.574;7.770;2023-07-29T11:50:03;100488.34;;;21.90;39.67
45040;BME280;30778;53.574;7.770;2023-07-29T11:52:31;100480.34;;;23.00;38.39
45040;BME280;30778;53.574;7.770;2023-07-29T11:54:58;100482.94;;;23.10;37.88
45040;BME280;30778;53.574;7.770;2023-07-29T11:57:24;100484.50;;;24.09;35.31
45040;BME280;30778;53.574;7.770;2023-07-29T11:59:49;100478.91;;;24.88;34.85
45040;BME280;30778;53.574;7.770;2023-07-29T12:02:20;100486.44;;;23.99;34.93
45040;BME280;30778;53.574;7.770;2023-07-29T12:04:46;100494.50;;;25.17;33.38
45040;BME280;30778;53.574;7.770;2023-07-29T12:07:13;100471.75;;;24.96;32.07
45040;BME280;30778;53.574;7.770;2023-07-29T12:09:40;100489.84;;;24.09;33.40
45040;BME280;30778;53.574;7.770;2023-07-29T12:12:07;100493.03;;;24.47;33.05
45040;BME280;30778;53.574;7.770;2023-07-29T12:14:33;100496.50;;;25.64;32.07
45040;BME280;30778;53.574;7.770;2023-07-29T12:17:04;100490.25;;;24.81;32.97
45040;BME280;30778;53.574;7.770;2023-07-29T12:19:34;100484.47;;;25.11;32.02
45040;BME280;30778;53.574;7.770;2023-07-29T12:22:05;100483.50;;;25.12;32.09
45040;BME280;30778;53.574;7.770;2023-07-29T12:24:31;100479.63;;;25.63;31.81
45040;BME280;30778;53.574;7.770;2023-07-29T12:26:58;100487.50;;;25.32;31.26
45040;BME280;30778;53.574;7.770;2023-07-29T12:29:23;100478.16;;;25.20;32.57
45040;BME280;30778;53.574;7.770;2023-07-29T12:31:57;100479.00;;;24.11;32.81
45040;BME280;30778;53.574;7.770;2023-07-29T12:34:25;100468.22;;;24.88;31.83
45040;BME280;30778;53.574;7.770;2023-07-29T12:36:51;100472.81;;;25.20;30.95
45040;BME280;30778;53.574;7.770;2023-07-29T12:39:21;100485.34;;;24.10;33.16
45040;BME280;30778;53.574;7.770;2023-07-29T12:41:48;100469.50;;;24.51;32.60
45040;BME280;30778;53.574;7.770;2023-07-29T12:44:14;100480.84;;;24.44;32.56
45040;BME280;30778;53.574;7.770;2023-07-29T12:46:40;100475.31;;;23.77;33.63
45040;BME280;30778;53.574;7.770;2023-07-29T12:49:06;100470.09;;;22.70;35.28
45040;BME280;30778;53.574;7.770;2023-07-29T12:51:32;100481.63;;;22.61;36.87
45040;BME280;30778;53.574;7.770;2023-07-29T12:53:57;100479.53;;;22.27;36.34